Terminal Aerodrome Forecast
Issued by NWS

Home | Current Version | Previous Version | Text Only | Print | Product List | Glossary On
Versions: 1 2 3 4 5 6 7 8 9 10 11 12 13 14 15 16 17
974
FTUS43 KGRR 111720
TAFJXN
TAF
KJXN 111720Z 1118/1218 29009KT P6SM -SN BKN040
     FM120000 23008KT P6SM BKN040
     FM121400 24010G18KT 4SM -SHSN BR OVC030=

USA.gov is the U.S. government's official web portal to all federal, state and local government web resources and services.